Time;durP1;ratioP1;P1;durP2;ratioP2;P2;SDS_P1;SDS_P2;PMS_P1;PMS_P2;Temp;Humidity;BMP_temperature;BMP_pressure;BME280_temperature;BME280_humidity;BME280_pressure;Samples;Min_cycle;Max_cycle;Signal;HPM_P1;HPM_P2
2024/01/29 00:01:56;;;;;;;;;;;;;;;3.82;75.13;100514.34;5072235;28;20328;-78
2024/01/29 00:04:22;;;;;;;;;;;;;;;3.98;74.03;100523.41;5054254;28;20397;-78
2024/01/29 00:06:47;;;;;;;;;;;;;;;4.01;74.17;100519.97;5071796;28;19912;-78
2024/01/29 00:09:12;;;;;;;;;;;;;;;4.05;75.39;100523.59;5072106;28;19917;-78
2024/01/29 00:11:38;;;;;;;;;;;;;;;4.10;73.58;100528.81;5053775;28;19916;-78
2024/01/29 00:14:05;;;;;;;;;;;;;;;4.06;73.62;100538.88;5053110;28;20316;-78
2024/01/29 00:16:30;;;;;;;;;;;;;;;4.05;73.27;100537.28;5071795;28;19908;-78
2024/01/29 00:18:55;;;;;;;;;;;;;;;4.05;73.24;100548.22;5053941;28;19915;-78
2024/01/29 00:21:21;;;;;;;;;;;;;;;4.05;73.41;100548.22;5053986;28;19908;-79
2024/01/29 00:23:46;;;;;;;;;;;;;;;4.01;74.25;100552.00;5053812;28;20369;-78
2024/01/29 00:26:11;;;;;;;;;;;;;;;4.00;75.65;100555.88;5071677;28;19919;-78
2024/01/29 00:28:37;;;;;;;;;;;;;;;3.96;76.47;100555.78;5053711;28;20282;-78
2024/01/29 00:31:02;;;;;;;;;;;;;;;3.93;76.92;100550.19;5070477;28;19912;-77
2024/01/29 00:33:27;;;;;;;;;;;;;;;3.91;78.06;100550.56;5053583;28;20377;-78
2024/01/29 00:35:53;;;;;;;;;;;;;;;3.92;78.04;100565.81;5071295;28;19954;-78
2024/01/29 00:38:18;;;;;;;;;;;;;;;3.94;77.99;100563.53;5071646;28;19912;-79
2024/01/29 00:40:43;;;;;;;;;;;;;;;3.89;79.02;100561.03;5071474;28;20002;-78
2024/01/29 00:43:09;;;;;;;;;;;;;;;3.88;79.06;100559.44;5053565;28;19990;-78
2024/01/29 00:45:34;;;;;;;;;;;;;;;3.82;80.45;100560.81;5071506;28;20388;-79
2024/01/29 00:47:59;;;;;;;;;;;;;;;3.80;81.13;100567.81;5053600;28;19920;-78
2024/01/29 00:50:24;;;;;;;;;;;;;;;3.74;82.28;100561.75;5071396;28;19908;-78
2024/01/29 00:52:50;;;;;;;;;;;;;;;3.75;82.65;100560.59;5053190;28;19912;-78
2024/01/29 00:55:15;;;;;;;;;;;;;;;3.72;83.46;100555.06;5053493;28;19995;-77
2024/01/29 00:57:41;;;;;;;;;;;;;;;3.66;83.95;100557.22;5071437;28;19916;-79
2024/01/29 01:00:10;;;;;;;;;;;;;;;3.74;84.13;100556.28;5053456;28;19923;-79
2024/01/29 01:02:35;;;;;;;;;;;;;;;3.71;83.25;100559.72;5053161;28;19928;-79
2024/01/29 01:05:01;;;;;;;;;;;;;;;3.71;83.39;100562.44;5071269;28;20007;-78
2024/01/29 01:07:27;;;;;;;;;;;;;;;3.64;83.68;100562.22;5053427;28;19909;-78
2024/01/29 01:09:52;;;;;;;;;;;;;;;3.60;83.22;100564.88;5071247;28;20351;-78
2024/01/29 01:12:17;;;;;;;;;;;;;;;3.62;84.17;100576.22;5071154;28;19912;-79
2024/01/29 01:14:43;;;;;;;;;;;;;;;3.64;84.18;100581.38;5071153;28;19912;-78
2024/01/29 01:17:08;;;;;;;;;;;;;;;3.71;84.31;100578.84;5053304;28;20377;-78
2024/01/29 01:19:33;;;;;;;;;;;;;;;3.77;83.98;100580.22;5053213;28;20006;-78
2024/01/29 01:21:59;;;;;;;;;;;;;;;3.79;82.65;100579.88;5071159;28;20361;-77
2024/01/29 01:24:24;;;;;;;;;;;;;;;3.83;81.67;100583.50;5054498;28;19912;-77
2024/01/29 01:26:50;;;;;;;;;;;;;;;3.80;82.18;100579.50;5057197;28;19935;-77
2024/01/29 01:29:15;;;;;;;;;;;;;;;3.73;82.09;100576.59;5075192;28;19919;-78
2024/01/29 01:31:40;;;;;;;;;;;;;;;3.85;81.90;100583.97;5056748;28;19921;-79
2024/01/29 01:34:06;;;;;;;;;;;;;;;3.86;81.40;100578.13;5057113;28;19969;-80
2024/01/29 01:36:31;;;;;;;;;;;;;;;3.85;80.67;100579.28;5056896;28;19908;-78
2024/01/29 01:38:57;;;;;;;;;;;;;;;3.75;81.27;100581.69;5056666;28;19915;-78
2024/01/29 01:41:22;;;;;;;;;;;;;;;3.71;82.32;100576.13;5057058;28;19909;-79
2024/01/29 01:43:47;;;;;;;;;;;;;;;3.74;82.87;100580.88;5056814;28;19908;-79
2024/01/29 01:46:25;;;;;;;;;;;;;;;3.73;81.21;100573.06;5074840;28;19912;-78
2024/01/29 01:48:51;;;;;;;;;;;;;;;3.65;80.92;100581.03;5074740;28;19996;-80
2024/01/29 01:51:17;;;;;;;;;;;;;;;3.76;80.42;100575.88;5056582;28;19915;-78
2024/01/29 01:53:44;;;;;;;;;;;;;;;3.81;79.73;100578.38;5056655;28;19912;-78
2024/01/29 01:56:09;;;;;;;;;;;;;;;3.83;79.95;100575.28;5056662;28;19957;-79
2024/01/29 01:58:35;;;;;;;;;;;;;;;3.87;79.11;100573.44;5074758;28;20011;-77
2024/01/29 02:01:01;;;;;;;;;;;;;;;3.81;79.86;100581.09;5049437;28;20356;-78
2024/01/29 02:03:26;;;;;;;;;;;;;;;3.88;79.24;100575.06;5034380;28;19928;-78
2024/01/29 02:05:52;;;;;;;;;;;;;;;3.82;79.41;100576.44;5032925;28;19960;-78
2024/01/29 02:08:17;;;;;;;;;;;;;;;3.80;79.34;100584.19;5033009;28;19948;-78
2024/01/29 02:10:43;;;;;;;;;;;;;;;3.78;79.60;100591.94;5034511;28;19928;-78
2024/01/29 02:13:15;;;;;;;;;;;;;;;3.68;79.45;100590.47;5033143;28;19913;-79
2024/01/29 02:15:41;;;;;;;;;;;;;;;3.68;79.77;100580.31;5034337;28;19913;-78
2024/01/29 02:18:06;;;;;;;;;;;;;;;3.72;79.77;100582.38;5032954;28;20432;-78
2024/01/29 02:20:32;;;;;;;;;;;;;;;3.67;80.23;100591.63;5032882;28;19936;-78
2024/01/29 02:22:57;;;;;;;;;;;;;;;3.68;80.48;100585.00;5034076;28;19916;-78
2024/01/29 02:25:22;;;;;;;;;;;;;;;3.71;81.00;100583.53;5033034;28;20390;-78
2024/01/29 02:27:47;;;;;;;;;;;;;;;3.65;81.08;100591.97;5033120;28;19917;-78
2024/01/29 02:30:13;;;;;;;;;;;;;;;3.69;81.63;100587.38;5032786;28;19921;-80
2024/01/29 02:32:38;;;;;;;;;;;;;;;3.66;81.38;100584.56;5033949;28;19913;-79
2024/01/29 02:35:04;;;;;;;;;;;;;;;3.70;81.73;100585.47;5032398;28;20375;-78
2024/01/29 02:37:29;;;;;;;;;;;;;;;3.67;82.01;100586.97;5031519;28;19964;-79
2024/01/29 02:39:55;;;;;;;;;;;;;;;3.60;82.23;100594.13;5033837;28;19955;-77
2024/01/29 02:42:20;;;;;;;;;;;;;;;3.60;82.46;100591.41;5032478;28;19990;-79
2024/01/29 02:44:46;;;;;;;;;;;;;;;3.60;83.28;100588.66;5033775;28;19909;-78
2024/01/29 02:47:11;;;;;;;;;;;;;;;3.56;83.72;100583.06;5032597;28;19909;-79
2024/01/29 02:49:37;;;;;;;;;;;;;;;3.49;84.72;100585.59;5033690;28;19909;-79
2024/01/29 02:52:04;;;;;;;;;;;;;;;3.39;85.85;100590.72;5032048;28;19913;-79
2024/01/29 02:54:29;;;;;;;;;;;;;;;3.32;85.60;100587.75;5032372;28;19913;-77
2024/01/29 02:56:54;;;;;;;;;;;;;;;3.25;86.14;100591.09;5033650;28;19919;-79
2024/01/29 02:59:19;;;;;;;;;;;;;;;3.11;88.04;100593.34;5031896;28;19916;-79
2024/01/29 03:01:45;;;;;;;;;;;;;;;3.19;88.45;100593.25;5041642;28;19920;-77
2024/01/29 03:04:10;;;;;;;;;;;;;;;3.18;88.65;100591.66;5053445;28;19944;-77
2024/01/29 03:06:35;;;;;;;;;;;;;;;3.23;88.64;100588.69;5051615;28;20373;-78
2024/01/29 03:09:01;;;;;;;;;;;;;;;3.21;89.41;100590.94;5053097;28;20376;-78
2024/01/29 03:11:26;;;;;;;;;;;;;;;3.13;89.80;100583.69;5051864;28;19912;-77
2024/01/29 03:13:51;;;;;;;;;;;;;;;3.05;90.35;100586.50;5053196;28;19913;-79
2024/01/29 03:16:16;;;;;;;;;;;;;;;2.96;90.74;100592.06;5051686;28;20377;-78
2024/01/29 03:18:42;;;;;;;;;;;;;;;2.96;90.99;100588.53;5051881;28;19909;-78
2024/01/29 03:21:07;;;;;;;;;;;;;;;2.96;91.30;100588.53;5051756;28;19962;-78
2024/01/29 03:23:32;;;;;;;;;;;;;;;3.00;91.17;100584.81;5053039;28;19991;-78
2024/01/29 03:25:58;;;;;;;;;;;;;;;3.02;91.91;100592.63;5051733;28;19909;-78
2024/01/29 03:28:23;;;;;;;;;;;;;;;3.03;91.77;100592.28;5052667;28;19947;-78
2024/01/29 03:30:48;;;;;;;;;;;;;;;3.06;91.48;100588.09;5051373;28;20348;-78
2024/01/29 03:33:14;;;;;;;;;;;;;;;3.13;91.78;100591.88;5052773;28;20355;-78
2024/01/29 03:35:39;;;;;;;;;;;;;;;3.08;92.38;100581.16;5052532;28;19913;-79
2024/01/29 03:38:04;;;;;;;;;;;;;;;3.11;93.00;100579.69;5052453;28;19919;-78
2024/01/29 03:40:29;;;;;;;;;;;;;;;3.10;93.65;100578.09;5051458;28;19913;-79
2024/01/29 03:42:55;;;;;;;;;;;;;;;2.98;94.35;100567.94;5051284;28;20301;-78
2024/01/29 03:45:20;;;;;;;;;;;;;;;2.98;94.42;100573.41;5052675;28;20007;-78
2024/01/29 03:47:45;;;;;;;;;;;;;;;2.95;93.80;100578.75;5051353;28;19908;-78
2024/01/29 03:50:11;;;;;;;;;;;;;;;2.97;93.25;100580.00;5050888;28;19966;-78
2024/01/29 03:52:36;;;;;;;;;;;;;;;3.00;92.21;100573.06;5051089;28;19913;-78
2024/01/29 03:55:02;;;;;;;;;;;;;;;2.91;92.29;100578.63;5052431;28;19939;-77
2024/01/29 03:57:27;;;;;;;;;;;;;;;2.85;92.10;100574.53;5052351;28;19944;-78
2024/01/29 03:59:56;;;;;;;;;;;;;;;2.66;93.29;100568.78;5052123;28;19909;-77
2024/01/29 04:02:21;;;;;;;;;;;;;;;2.63;94.47;100570.28;5036136;28;19985;-78
2024/01/29 04:04:48;;;;;;;;;;;;;;;2.60;95.21;100570.94;5032268;28;19952;-78
2024/01/29 04:07:13;;;;;;;;;;;;;;;2.70;95.38;100570.53;5031049;28;19913;-79
2024/01/29 04:09:38;;;;;;;;;;;;;;;2.79;94.63;100573.94;5032287;28;20345;-77
2024/01/29 04:12:04;;;;;;;;;;;;;;;2.82;93.84;100578.75;5030845;28;19971;-79
2024/01/29 04:14:30;;;;;;;;;;;;;;;2.77;93.90;100570.75;5030371;28;20378;-78
2024/01/29 04:16:55;;;;;;;;;;;;;;;2.79;94.11;100573.94;5032201;28;19913;-79
2024/01/29 04:19:21;;;;;;;;;;;;;;;2.79;94.25;100584.88;5030755;28;20346;-78
2024/01/29 04:21:46;;;;;;;;;;;;;;;2.81;93.51;100582.59;5030811;28;19920;-77
2024/01/29 04:24:12;;;;;;;;;;;;;;;2.82;93.27;100578.75;5032013;28;20390;-78
2024/01/29 04:26:38;;;;;;;;;;;;;;;2.81;92.92;100588.06;5031942;28;19999;-77
2024/01/29 04:29:04;;;;;;;;;;;;;;;2.84;91.63;100592.03;5031767;28;19920;-79
2024/01/29 04:31:29;;;;;;;;;;;;;;;2.83;90.84;100593.19;5030581;28;19912;-78
2024/01/29 04:33:54;;;;;;;;;;;;;;;2.78;90.78;100601.56;5030185;28;19917;-78
2024/01/29 04:36:20;;;;;;;;;;;;;;;2.77;90.88;100603.50;5030471;28;19920;-78
2024/01/29 04:38:45;;;;;;;;;;;;;;;2.68;91.86;100597.34;5030462;28;19987;-79
2024/01/29 04:41:18;;;;;;;;;;;;;;;2.58;92.35;100597.78;5030331;28;20412;-79
2024/01/29 04:43:43;;;;;;;;;;;;;;;2.47;93.79;100593.88;5030280;28;19959;-79
2024/01/29 04:46:08;;;;;;;;;;;;;;;2.52;93.40;100596.41;5030422;28;19909;-78
2024/01/29 04:48:33;;;;;;;;;;;;;;;2.70;92.20;100605.22;5030196;28;19917;-79
2024/01/29 04:50:59;;;;;;;;;;;;;;;2.83;90.58;100593.19;5030549;28;20261;-78
2024/01/29 04:53:24;;;;;;;;;;;;;;;2.93;90.40;100603.66;5030361;28;19913;-78
2024/01/29 04:55:49;;;;;;;;;;;;;;;2.99;89.48;100607.78;5031429;28;19996;-78
2024/01/29 04:58:15;;;;;;;;;;;;;;;2.99;89.03;100612.44;5030007;28;19956;-77
2024/01/29 05:00:40;;;;;;;;;;;;;;;3.05;88.46;100611.06;5032765;28;20007;-78
2024/01/29 05:03:06;;;;;;;;;;;;;;;3.06;88.08;100615.41;5053224;28;19916;-78
2024/01/29 05:05:31;;;;;;;;;;;;;;;3.06;87.36;100610.75;5053544;28;19959;-78
2024/01/29 05:07:56;;;;;;;;;;;;;;;3.07;87.76;100615.06;5052906;28;19912;-78
2024/01/29 05:10:22;;;;;;;;;;;;;;;3.12;87.51;100611.31;5053326;28;19978;-77
2024/01/29 05:12:47;;;;;;;;;;;;;;;3.10;87.34;100616.31;5071177;28;20373;-77
2024/01/29 05:15:12;;;;;;;;;;;;;;;3.07;86.69;100623.28;5070968;28;19908;-77
2024/01/29 05:17:38;;;;;;;;;;;;;;;3.09;86.97;100626.44;5053131;28;20293;-77
2024/01/29 05:20:04;;;;;;;;;;;;;;;3.02;87.67;100623.47;5071412;28;19927;-77
2024/01/29 05:22:29;;;;;;;;;;;;;;;3.00;86.89;100630.41;5071079;28;19905;-77
2024/01/29 05:24:55;;;;;;;;;;;;;;;2.93;86.26;100630.16;5052912;28;19935;-79
2024/01/29 05:27:20;;;;;;;;;;;;;;;2.91;85.68;100630.50;5071050;28;20066;-79
2024/01/29 05:29:45;;;;;;;;;;;;;;;2.85;86.49;100632.66;5053267;28;20343;-78
2024/01/29 05:32:10;;;;;;;;;;;;;;;2.65;88.51;100633.50;5052968;28;19923;-80
2024/01/29 05:34:36;;;;;;;;;;;;;;;2.55;89.71;100639.38;5053086;28;19912;-77
2024/01/29 05:37:01;;;;;;;;;;;;;;;2.55;90.74;100652.22;5053224;28;20363;-78
2024/01/29 05:39:27;;;;;;;;;;;;;;;2.53;91.19;100651.78;5071111;28;19912;-79
2024/01/29 05:41:52;;;;;;;;;;;;;;;2.45;90.67;100667.88;5053014;28;20365;-78
2024/01/29 05:44:18;;;;;;;;;;;;;;;2.44;91.29;100670.94;5070667;28;19908;-78
2024/01/29 05:46:43;;;;;;;;;;;;;;;2.41;91.94;100675.09;5052933;28;19919;-78
2024/01/29 05:49:08;;;;;;;;;;;;;;;2.39;91.91;100671.94;5052877;28;20376;-77
2024/01/29 05:51:34;;;;;;;;;;;;;;;2.38;91.33;100666.81;5070773;28;19970;-78
2024/01/29 05:54:00;;;;;;;;;;;;;;;2.37;91.23;100666.00;5070904;28;19972;-79
2024/01/29 05:56:25;;;;;;;;;;;;;;;2.45;90.80;100667.06;5052897;28;19916;-77
2024/01/29 05:58:50;;;;;;;;;;;;;;;2.49;91.36;100673.44;5053141;28;20377;-78
2024/01/29 06:01:16;;;;;;;;;;;;;;;2.57;90.85;100672.59;5070815;28;19927;-78
2024/01/29 06:03:41;;;;;;;;;;;;;;;2.64;87.85;100675.56;5052771;28;19927;-78
2024/01/29 06:06:06;;;;;;;;;;;;;;;2.74;86.28;100680.63;5052785;28;19950;-78
2024/01/29 06:08:32;;;;;;;;;;;;;;;2.80;85.31;100681.19;5052846;28;19981;-78
2024/01/29 06:10:57;;;;;;;;;;;;;;;2.90;85.16;100672.56;5053490;28;19915;-78
2024/01/29 06:13:23;;;;;;;;;;;;;;;2.97;84.83;100675.56;5074382;28;19912;-78
2024/01/29 06:15:49;;;;;;;;;;;;;;;2.97;84.10;100682.94;5074272;28;20378;-78
2024/01/29 06:18:14;;;;;;;;;;;;;;;3.00;83.92;100683.09;5074378;28;19970;-79
2024/01/29 06:20:40;;;;;;;;;;;;;;;3.00;84.97;100694.00;5074180;28;19958;-78
2024/01/29 06:23:06;;;;;;;;;;;;;;;3.03;85.16;100687.06;5056055;28;20015;-78
2024/01/29 06:25:31;;;;;;;;;;;;;;;3.08;85.99;100689.56;5072803;28;19912;-78
2024/01/29 06:27:57;;;;;;;;;;;;;;;3.17;85.48;100690.28;5074022;28;19913;-78
2024/01/29 06:30:23;;;;;;;;;;;;;;;3.26;85.22;100694.50;5056157;28;19931;-77
2024/01/29 06:32:48;;;;;;;;;;;;;;;3.33;84.78;100690.44;5055873;28;20003;-79
2024/01/29 06:35:13;;;;;;;;;;;;;;;3.43;84.11;100690.00;5055861;28;19974;-78
2024/01/29 06:37:39;;;;;;;;;;;;;;;3.57;83.64;100695.91;5056153;28;19912;-80
2024/01/29 06:40:04;;;;;;;;;;;;;;;3.76;82.98;100696.16;5055904;28;19966;-78
2024/01/29 06:42:30;;;;;;;;;;;;;;;4.00;82.60;100703.56;5073891;28;19920;-78
2024/01/29 06:44:55;;;;;;;;;;;;;;;4.25;82.94;100690.66;5055875;28;20301;-79
2024/01/29 06:47:20;;;;;;;;;;;;;;;4.49;81.29;100701.53;5055727;28;20423;-78
2024/01/29 06:49:46;;;;;;;;;;;;;;;4.81;80.50;100700.50;5073553;28;19975;-78
2024/01/29 06:52:11;;;;;;;;;;;;;;;4.86;77.47;100707.66;5073149;28;20365;-78
2024/01/29 06:54:36;;;;;;;;;;;;;;;4.78;77.88;100709.41;5055570;28;19951;-79
2024/01/29 06:57:02;;;;;;;;;;;;;;;4.87;77.22;100710.06;5073217;28;20317;-78
2024/01/29 06:59:27;;;;;;;;;;;;;;;5.23;76.54;100711.03;5073840;28;19908;-77
2024/01/29 07:01:57;;;;;;;;;;;;;;;5.37;76.76;100699.63;5041106;28;19924;-78
2024/01/29 07:04:22;;;;;;;;;;;;;;;5.53;74.18;100697.69;5033877;28;19917;-78
2024/01/29 07:06:48;;;;;;;;;;;;;;;5.53;73.10;100706.72;5033401;28;19913;-78
2024/01/29 07:09:13;;;;;;;;;;;;;;;5.55;72.78;100712.63;5031963;28;20369;-78
2024/01/29 07:11:38;;;;;;;;;;;;;;;5.61;72.80;100704.94;5033261;28;20433;-77
2024/01/29 07:14:04;;;;;;;;;;;;;;;5.66;73.20;100705.50;5033374;28;20367;-78
2024/01/29 07:16:29;;;;;;;;;;;;;;;5.72;72.54;100714.25;5033189;28;19909;-78
2024/01/29 07:18:54;;;;;;;;;;;;;;;5.72;70.52;100712.31;5033078;28;20025;-78
2024/01/29 07:21:20;;;;;;;;;;;;;;;5.54;66.30;100716.56;5031763;28;20007;-79
2024/01/29 07:23:45;;;;;;;;;;;;;;;5.63;65.90;100714.41;5032793;28;20004;-79
2024/01/29 07:26:10;;;;;;;;;;;;;;;5.66;65.50;100712.91;5031748;28;20067;-78
2024/01/29 07:28:36;;;;;;;;;;;;;;;5.72;65.73;100722.47;5032976;28;19920;-78
2024/01/29 07:31:01;;;;;;;;;;;;;;;5.63;65.32;100722.63;5032867;28;19913;-78
2024/01/29 07:33:26;;;;;;;;;;;;;;;5.43;65.35;100728.38;5031422;28;19917;-79
2024/01/29 07:35:51;;;;;;;;;;;;;;;5.32;65.95;100726.16;5031599;28;19967;-78
2024/01/29 07:38:17;;;;;;;;;;;;;;;5.17;66.37;100729.69;5032815;28;20453;-78
2024/01/29 07:40:43;;;;;;;;;;;;;;;5.27;66.06;100729.16;5031435;28;19913;-78
2024/01/29 07:43:09;;;;;;;;;;;;;;;5.24;66.16;100731.81;5032691;28;19909;-78
2024/01/29 07:45:34;;;;;;;;;;;;;;;5.26;65.58;100737.72;5032666;28;20310;-77
2024/01/29 07:48:00;;;;;;;;;;;;;;;5.29;65.92;100734.28;5031247;28;19909;-78
2024/01/29 07:50:25;;;;;;;;;;;;;;;5.32;66.87;100728.88;5032616;28;20374;-78
2024/01/29 07:52:50;;;;;;;;;;;;;;;5.19;65.18;100738.31;5032681;28;19916;-78
2024/01/29 07:55:16;;;;;;;;;;;;;;;5.14;65.18;100735.03;5031095;28;19913;-78
2024/01/29 07:57:42;;;;;;;;;;;;;;;5.20;64.22;100733.63;5031165;28;19912;-78
2024/01/29 08:00:07;;;;;;;;;;;;;;;5.17;64.92;100729.69;5030946;28;20345;-78
2024/01/29 08:02:33;;;;;;;;;;;;;;;5.10;62.22;100745.13;5064092;28;19964;-78
2024/01/29 08:04:58;;;;;;;;;;;;;;;5.12;63.31;100742.84;5072134;28;19908;-77
2024/01/29 08:07:24;;;;;;;;;;;;;;;5.13;61.38;100741.66;5072154;28;19912;-79
2024/01/29 08:09:49;;;;;;;;;;;;;;;5.09;60.75;100738.03;5054120;28;19908;-77
2024/01/29 08:12:14;;;;;;;;;;;;;;;5.16;59.53;100747.25;5071955;28;19916;-78
2024/01/29 08:14:40;;;;;;;;;;;;;;;5.22;59.76;100748.59;5054139;28;19951;-77
2024/01/29 08:17:05;;;;;;;;;;;;;;;5.41;57.57;100745.19;5070598;28;19912;-79
2024/01/29 08:19:31;;;;;;;;;;;;;;;5.42;58.82;100744.03;5054204;28;19916;-78
2024/01/29 08:21:56;;;;;;;;;;;;;;;5.48;57.97;100742.63;5072079;28;20381;-78
2024/01/29 08:24:22;;;;;;;;;;;;;;;5.52;56.00;100749.00;5071749;28;19912;-79
2024/01/29 08:26:47;;;;;;;;;;;;;;;5.43;57.62;100751.09;5054014;28;19908;-78
2024/01/29 08:29:12;;;;;;;;;;;;;;;5.35;60.42;100749.31;5053617;28;19916;-78
2024/01/29 08:31:38;;;;;;;;;;;;;;;5.35;61.37;100746.59;5053647;28;19908;-78
2024/01/29 08:34:04;;;;;;;;;;;;;;;5.33;59.55;100760.63;5053211;28;20389;-77
2024/01/29 08:36:29;;;;;;;;;;;;;;;5.35;58.69;100760.28;5053985;28;19915;-79
2024/01/29 08:38:55;;;;;;;;;;;;;;;5.32;57.88;100771.94;5053746;28;19917;-77
2024/01/29 08:41:20;;;;;;;;;;;;;;;5.26;55.94;100774.16;5053637;28;19912;-77
2024/01/29 08:43:45;;;;;;;;;;;;;;;5.43;58.26;100781.25;5071617;28;20399;-78
2024/01/29 08:46:11;;;;;;;;;;;;;;;5.32;58.31;100777.44;5053514;28;19915;-79
2024/01/29 08:48:36;;;;;;;;;;;;;;;5.40;59.00;100781.16;5053637;28;20349;-79
2024/01/29 08:51:02;;;;;;;;;;;;;;;5.29;59.00;100778.94;5071439;28;19908;-77
2024/01/29 08:53:27;;;;;;;;;;;;;;;5.36;59.14;100777.53;5071445;28;19913;-78
2024/01/29 08:55:53;;;;;;;;;;;;;;;5.35;57.35;100782.22;5053486;28;19954;-79
2024/01/29 08:58:18;;;;;;;;;;;;;;;5.26;57.33;100787.84;5071455;28;19947;-78
2024/01/29 09:00:43;;;;;;;;;;;;;;;5.41;57.69;100788.25;5071267;28;20332;-78
2024/01/29 09:03:09;;;;;;;;;;;;;;;5.60;56.69;100796.59;5053427;28;19940;-77
2024/01/29 09:05:38;;;;;;;;;;;;;;;5.67;58.17;100789.34;5069656;28;20461;-78
2024/01/29 09:08:04;;;;;;;;;;;;;;;5.46;57.13;100788.78;5053374;28;20001;-78
2024/01/29 09:10:29;;;;;;;;;;;;;;;5.59;56.42;100793.06;5053375;28;19959;-79
2024/01/29 09:12:55;;;;;;;;;;;;;;;5.37;54.29;100787.34;5071248;28;20019;-78
2024/01/29 09:15:20;;;;;;;;;;;;;;;5.44;55.63;100779.31;5071265;28;20392;-77
2024/01/29 09:17:45;;;;;;;;;;;;;;;5.48;53.50;100780.22;5053420;28;19919;-78
2024/01/29 09:20:12;;;;;;;;;;;;;;;5.54;52.81;100776.88;5053225;28;19916;-80
2024/01/29 09:22:37;;;;;;;;;;;;;;;5.88;57.59;100769.13;5071057;28;19923;-79
2024/01/29 09:25:03;;;;;;;;;;;;;;;5.73;54.32;100765.19;5070901;28;19912;-78
2024/01/29 09:27:29;;;;;;;;;;;;;;;5.94;56.05;100759.47;5070889;28;19920;-78
2024/01/29 09:29:54;;;;;;;;;;;;;;;5.89;54.44;100759.75;5052636;28;19920;-77
2024/01/29 09:32:20;;;;;;;;;;;;;;;5.68;52.58;100760.75;5052749;28;19924;-79
2024/01/29 09:34:45;;;;;;;;;;;;;;;5.37;53.84;100694.13;5052935;28;19916;-78
2024/01/29 09:37:10;;;;;;;;;;;;;;;6.04;54.93;100751.50;5070681;28;20396;-78
2024/01/29 09:39:35;;;;;;;;;;;;;;;6.12;52.41;100760.69;5052726;28;19960;-77
2024/01/29 09:42:04;;;;;;;;;;;;;;;5.91;51.02;100744.50;5069475;28;20019;-78
2024/01/29 09:44:36;;;;;;;;;;;;;;;5.83;51.91;100744.66;5052707;28;19916;-77
2024/01/29 09:47:03;;;;;;;;;;;;;;;5.97;52.41;100743.09;5056529;28;19952;-78
2024/01/29 09:49:28;;;;;;;;;;;;;;;5.90;50.55;100750.38;5074295;28;19918;-77
2024/01/29 09:51:54;;;;;;;;;;;;;;;5.95;51.40;100733.63;5056217;28;19924;-77
2024/01/29 09:54:19;;;;;;;;;;;;;;;6.08;51.20;100735.94;5056438;28;19917;-77
2024/01/29 09:56:45;;;;;;;;;;;;;;;6.11;50.34;100737.16;5056800;28;20003;-79
2024/01/29 09:59:10;;;;;;;;;;;;;;;6.09;51.48;100731.22;5074683;28;20301;-77
2024/01/29 10:01:36;;;;;;;;;;;;;;;6.12;50.11;100731.31;5056445;28;20347;-79
2024/01/29 10:04:01;;;;;;;;;;;;;;;6.03;50.39;100730.69;5074662;28;20019;-78
2024/01/29 10:06:26;;;;;;;;;;;;;;;5.99;48.87;100731.75;5074166;28;19942;-78
2024/01/29 10:08:52;;;;;;;;;;;;;;;6.12;50.88;100722.28;5074382;28;19920;-78
2024/01/29 10:11:18;;;;;;;;;;;;;;;6.13;48.28;100721.94;5056388;28;19995;-78
2024/01/29 10:13:45;;;;;;;;;;;;;;;6.06;49.71;100724.50;5056377;28;19920;-77
2024/01/29 10:16:11;;;;;;;;;;;;;;;6.17;49.96;100713.75;5074314;28;19912;-77
2024/01/29 10:18:37;;;;;;;;;;;;;;;6.20;49.98;100721.28;5074262;28;19916;-78
2024/01/29 10:21:03;;;;;;;;;;;;;;;6.34;48.56;100731.78;5074313;28;19916;-78
2024/01/29 10:23:29;;;;;;;;;;;;;;;6.38;48.98;100717.00;5056170;28;19920;-77
2024/01/29 10:26:03;;;;;;;;;;;;;;;6.49;48.66;100718.03;5056279;28;19916;-78
2024/01/29 10:28:28;;;;;;;;;;;;;;;6.40;48.19;100716.63;5074007;28;19913;-77
2024/01/29 10:30:55;;;;;;;;;;;;;;;6.40;47.33;100720.16;5073786;28;19920;-78
2024/01/29 10:33:21;;;;;;;;;;;;;;;6.44;47.44;100720.25;5056223;28;19920;-78
2024/01/29 10:35:47;;;;;;;;;;;;;;;6.41;46.38;100718.22;5056050;28;19912;-77
2024/01/29 10:38:13;;;;;;;;;;;;;;;6.62;47.97;100713.19;5073962;28;19916;-79
2024/01/29 10:40:39;;;;;;;;;;;;;;;6.72;47.08;100712.59;5073847;28;19939;-79
2024/01/29 10:43:05;;;;;;;;;;;;;;;6.51;46.44;100704.72;5055802;28;19916;-77
2024/01/29 10:45:35;;;;;;;;;;;;;;;6.76;49.59;100698.94;5055803;28;20294;-78
2024/01/29 10:48:17;;;;;;;;;;;;;;;6.66;47.17;100694.03;5073743;28;19959;-77
2024/01/29 10:50:43;;;;;;;;;;;;;;;6.77;46.88;100695.03;5055652;28;20451;-78
2024/01/29 10:53:11;;;;;;;;;;;;;;;6.85;47.13;100686.59;5055549;28;19920;-77
2024/01/29 10:55:37;;;;;;;;;;;;;;;6.74;46.37;100687.53;5055357;28;20007;-78
2024/01/29 10:58:03;;;;;;;;;;;;;;;6.87;46.95;100687.00;5054606;28;20020;-77
2024/01/29 11:00:31;;;;;;;;;;;;;;;7.00;46.53;100693.13;5073389;28;19912;-78
2024/01/29 11:02:57;;;;;;;;;;;;;;;6.86;45.91;100688.19;5032271;28;19926;-77
2024/01/29 11:05:23;;;;;;;;;;;;;;;6.86;46.31;100684.63;5031966;28;19921;-78
2024/01/29 11:07:49;;;;;;;;;;;;;;;6.79;46.79;100673.50;5033174;28;20011;-77
2024/01/29 11:10:19;;;;;;;;;;;;;;;6.75;46.67;100683.63;5032150;28;19917;-78
2024/01/29 11:12:45;;;;;;;;;;;;;;;6.85;45.73;100680.28;5031756;28;19968;-77
2024/01/29 11:15:11;;;;;;;;;;;;;;;6.94;45.36;100670.66;5032042;28;20445;-77
2024/01/29 11:17:36;;;;;;;;;;;;;;;6.91;44.45;100668.66;5033368;28;20008;-77
2024/01/29 11:20:04;;;;;;;;;;;;;;;6.86;45.95;100665.41;5033315;28;20448;-77
2024/01/29 11:22:36;;;;;;;;;;;;;;;6.81;47.25;100662.94;5032132;28;19924;-78
2024/01/29 11:25:11;;;;;;;;;;;;;;;6.89;46.17;100659.16;5032009;28;19913;-78
2024/01/29 11:27:40;;;;;;;;;;;;;;;6.77;45.90;100645.59;5031782;28;19917;-78
2024/01/29 11:30:22;;;;;;;;;;;;;;;6.82;46.18;100642.53;5033190;28;19943;-78
2024/01/29 11:32:47;;;;;;;;;;;;;;;6.89;46.29;100642.69;5031525;28;20015;-78
2024/01/29 11:35:13;;;;;;;;;;;;;;;6.92;44.49;100636.47;5031693;28;20067;-78
2024/01/29 11:37:39;;;;;;;;;;;;;;;6.94;46.02;100634.94;5031848;28;20395;-78
2024/01/29 11:40:05;;;;;;;;;;;;;;;7.10;46.37;100632.09;5031587;28;20011;-79
2024/01/29 11:42:30;;;;;;;;;;;;;;;7.23;45.55;100635.47;5031669;28;19920;-77
2024/01/29 11:44:56;;;;;;;;;;;;;;;7.15;44.98;100629.03;5031517;28;19920;-78
2024/01/29 11:47:22;;;;;;;;;;;;;;;7.21;45.72;100629.53;5031483;28;19917;-77
2024/01/29 11:49:48;;;;;;;;;;;;;;;7.18;45.61;100625.53;5032603;28;19970;-79
2024/01/29 11:52:14;;;;;;;;;;;;;;;7.27;44.88;100620.59;5031271;28;19917;-78
2024/01/29 11:54:40;;;;;;;;;;;;;;;7.33;43.95;100623.84;5031302;28;19920;-78
2024/01/29 11:57:07;;;;;;;;;;;;;;;7.42;44.46;100618.88;5032515;28;19917;-78
2024/01/29 11:59:42;;;;;;;;;;;;;;;7.77;44.01;100615.91;5033025;28;20306;-77
2024/01/29 12:02:07;;;;;;;;;;;;;;;8.10;44.31;100613.22;5030978;28;20357;-77
2024/01/29 12:04:33;;;;;;;;;;;;;;;8.19;43.63;100607.44;5031079;28;20375;-78
2024/01/29 12:06:58;;;;;;;;;;;;;;;7.88;43.68;100610.53;5032505;28;20450;-78
2024/01/29 12:09:28;;;;;;;;;;;;;;;7.93;43.90;100607.47;5031832;28;20434;-79
2024/01/29 12:11:53;;;;;;;;;;;;;;;8.02;42.24;100603.25;5030795;28;20436;-77
2024/01/29 12:14:19;;;;;;;;;;;;;;;8.04;42.79;100594.63;5031146;28;20031;-77
2024/01/29 12:16:44;;;;;;;;;;;;;;;8.07;42.86;100596.66;5032178;28;19917;-76
2024/01/29 12:19:10;;;;;;;;;;;;;;;7.75;43.09;100607.22;5030812;28;19924;-78
2024/01/29 12:21:35;;;;;;;;;;;;;;;7.81;43.38;100594.72;5031996;28;19917;-77
2024/01/29 12:24:00;;;;;;;;;;;;;;;7.87;43.33;100598.72;5030750;28;19948;-77
2024/01/29 12:26:29;;;;;;;;;;;;;;;7.95;42.76;100599.63;5030764;28;19913;-77
2024/01/29 12:28:55;;;;;;;;;;;;;;;7.96;44.08;100593.75;5031853;28;20361;-79
2024/01/29 12:31:21;;;;;;;;;;;;;;;7.99;43.86;100601.25;5031755;28;20409;-77
2024/01/29 12:33:46;;;;;;;;;;;;;;;7.90;43.01;100603.47;5030473;28;20382;-79
2024/01/29 12:36:12;;;;;;;;;;;;;;;7.81;42.92;100600.22;5030569;28;19921;-78
2024/01/29 12:38:39;;;;;;;;;;;;;;;7.70;44.84;100594.56;5030499;28;19955;-78
2024/01/29 12:41:05;;;;;;;;;;;;;;;7.40;43.20;100606.66;5030440;28;19917;-78